sensor_id;sensor_type;location;lat;lon;timestamp;temperature;humidity
51793;DHT22;37850;53.178;6.376;2023-05-27T00:00:09;8.30;99.90
51793;DHT22;37850;53.178;6.376;2023-05-27T00:02:35;8.30;99.90
51793;DHT22;37850;53.178;6.376;2023-05-27T00:05:01;8.30;99.90
51793;DHT22;37850;53.178;6.376;2023-05-27T00:07:27;8.30;99.90
51793;DHT22;37850;53.178;6.376;2023-05-27T00:09:57;8.30;99.90
51793;DHT22;37850;53.178;6.376;2023-05-27T00:12:22;8.20;99.90
51793;DHT22;37850;53.178;6.376;2023-05-27T00:14:48;8.20;99.90
51793;DHT22;37850;53.178;6.376;2023-05-27T00:17:14;8.10;99.90
51793;DHT22;37850;53.178;6.376;2023-05-27T00:19:43;8.10;99.90
51793;DHT22;37850;53.178;6.376;2023-05-27T00:22:13;8.10;99.90
51793;DHT22;37850;53.178;6.376;2023-05-27T00:24:39;8.00;99.90
51793;DHT22;37850;53.178;6.376;2023-05-27T00:27:07;8.00;99.90
51793;DHT22;37850;53.178;6.376;2023-05-27T00:29:33;7.90;99.90
51793;DHT22;37850;53.178;6.376;2023-05-27T00:32:00;7.90;99.90
51793;DHT22;37850;53.178;6.376;2023-05-27T00:34:28;7.80;99.90
51793;DHT22;37850;53.178;6.376;2023-05-27T00:36:54;7.80;99.90
51793;DHT22;37850;53.178;6.376;2023-05-27T00:39:19;7.80;99.90
51793;DHT22;37850;53.178;6.376;2023-05-27T00:41:48;7.80;99.90
51793;DHT22;37850;53.178;6.376;2023-05-27T00:44:15;7.80;99.90
51793;DHT22;37850;53.178;6.376;2023-05-27T00:46:44;7.70;99.90
51793;DHT22;37850;53.178;6.376;2023-05-27T00:49:10;7.70;99.90
51793;DHT22;37850;53.178;6.376;2023-05-27T00:51:37;7.60;99.90
51793;DHT22;37850;53.178;6.376;2023-05-27T00:54:03;8.00;99.90
51793;DHT22;37850;53.178;6.376;2023-05-27T00:56:28;7.60;99.90
51793;DHT22;37850;53.178;6.376;2023-05-27T00:58:54;7.50;99.90
51793;DHT22;37850;53.178;6.376;2023-05-27T01:01:20;7.50;99.90
51793;DHT22;37850;53.178;6.376;2023-05-27T01:03:46;7.50;99.90
51793;DHT22;37850;53.178;6.376;2023-05-27T01:14:25;7.30;99.90
51793;DHT22;37850;53.178;6.376;2023-05-27T01:16:54;7.30;99.90
51793;DHT22;37850;53.178;6.376;2023-05-27T01:19:33;7.30;99.90
51793;DHT22;37850;53.178;6.376;2023-05-27T01:22:00;7.20;99.90
51793;DHT22;37850;53.178;6.376;2023-05-27T01:24:27;7.20;99.90
51793;DHT22;37850;53.178;6.376;2023-05-27T01:26:53;7.20;99.90
51793;DHT22;37850;53.178;6.376;2023-05-27T01:29:19;7.20;99.90
51793;DHT22;37850;53.178;6.376;2023-05-27T01:34:39;7.10;99.90
51793;DHT22;37850;53.178;6.376;2023-05-27T01:37:09;7.10;99.90
51793;DHT22;37850;53.178;6.376;2023-05-27T01:39:39;7.10;99.90
51793;DHT22;37850;53.178;6.376;2023-05-27T01:42:08;7.10;99.90
51793;DHT22;37850;53.178;6.376;2023-05-27T01:44:35;7.10;99.90
51793;DHT22;37850;53.178;6.376;2023-05-27T01:47:01;7.10;99.90
51793;DHT22;37850;53.178;6.376;2023-05-27T01:49:29;7.00;99.90
51793;DHT22;37850;53.178;6.376;2023-05-27T01:51:55;7.80;99.90
51793;DHT22;37850;53.178;6.376;2023-05-27T01:54:21;7.00;99.90
51793;DHT22;37850;53.178;6.376;2023-05-27T01:56:47;6.90;99.90
51793;DHT22;37850;53.178;6.376;2023-05-27T01:59:13;6.90;99.90
51793;DHT22;37850;53.178;6.376;2023-05-27T02:01:39;6.90;99.90
51793;DHT22;37850;53.178;6.376;2023-05-27T02:04:05;6.90;99.90
51793;DHT22;37850;53.178;6.376;2023-05-27T02:06:31;6.80;99.90
51793;DHT22;37850;53.178;6.376;2023-05-27T02:08:57;7.20;99.90
51793;DHT22;37850;53.178;6.376;2023-05-27T02:11:23;6.80;99.90
51793;DHT22;37850;53.178;6.376;2023-05-27T02:13:49;6.80;99.90
51793;DHT22;37850;53.178;6.376;2023-05-27T02:16:15;6.70;99.90
51793;DHT22;37850;53.178;6.376;2023-05-27T02:18:41;6.70;99.90
51793;DHT22;37850;53.178;6.376;2023-05-27T02:21:07;6.70;99.90
51793;DHT22;37850;53.178;6.376;2023-05-27T02:23:33;6.70;99.90
51793;DHT22;37850;53.178;6.376;2023-05-27T02:25:59;6.70;99.90
51793;DHT22;37850;53.178;6.376;2023-05-27T02:28:26;6.70;99.90
51793;DHT22;37850;53.178;6.376;2023-05-27T02:30:52;6.70;99.90
51793;DHT22;37850;53.178;6.376;2023-05-27T02:33:17;6.70;99.90
51793;DHT22;37850;53.178;6.376;2023-05-27T02:35:43;6.70;99.90
51793;DHT22;37850;53.178;6.376;2023-05-27T02:38:09;6.70;99.90
51793;DHT22;37850;53.178;6.376;2023-05-27T02:40:35;6.70;99.90
51793;DHT22;37850;53.178;6.376;2023-05-27T02:43:00;6.90;99.90
51793;DHT22;37850;53.178;6.376;2023-05-27T02:45:26;6.70;99.90
51793;DHT22;37850;53.178;6.376;2023-05-27T02:47:52;6.70;99.90
51793;DHT22;37850;53.178;6.376;2023-05-27T02:50:17;6.70;99.90
51793;DHT22;37850;53.178;6.376;2023-05-27T02:52:43;6.70;99.90
51793;DHT22;37850;53.178;6.376;2023-05-27T02:55:09;6.70;99.90
51793;DHT22;37850;53.178;6.376;2023-05-27T02:57:34;6.90;99.90
51793;DHT22;37850;53.178;6.376;2023-05-27T03:00:01;6.70;99.90
51793;DHT22;37850;53.178;6.376;2023-05-27T03:02:26;6.70;99.90
51793;DHT22;37850;53.178;6.376;2023-05-27T03:04:52;6.90;99.90
51793;DHT22;37850;53.178;6.376;2023-05-27T03:07:21;6.70;99.90
51793;DHT22;37850;53.178;6.376;2023-05-27T03:09:46;6.70;99.90
51793;DHT22;37850;53.178;6.376;2023-05-27T03:12:12;6.70;99.90
51793;DHT22;37850;53.178;6.376;2023-05-27T03:14:38;6.70;99.90
51793;DHT22;37850;53.178;6.376;2023-05-27T03:17:03;6.70;99.90
51793;DHT22;37850;53.178;6.376;2023-05-27T03:19:29;6.70;99.90
51793;DHT22;37850;53.178;6.376;2023-05-27T03:21:55;6.70;99.90
51793;DHT22;37850;53.178;6.376;2023-05-27T03:24:21;6.70;99.90
51793;DHT22;37850;53.178;6.376;2023-05-27T03:26:47;6.70;99.90
51793;DHT22;37850;53.178;6.376;2023-05-27T03:29:12;6.70;99.90
51793;DHT22;37850;53.178;6.376;2023-05-27T03:31:38;6.70;99.90
51793;DHT22;37850;53.178;6.376;2023-05-27T03:34:04;6.70;99.90
51793;DHT22;37850;53.178;6.376;2023-05-27T03:36:30;6.80;99.90
51793;DHT22;37850;53.178;6.376;2023-05-27T03:38:56;6.70;99.90
51793;DHT22;37850;53.178;6.376;2023-05-27T03:41:22;6.80;99.90
51793;DHT22;37850;53.178;6.376;2023-05-27T03:43:48;6.80;99.90
51793;DHT22;37850;53.178;6.376;2023-05-27T03:46:13;6.80;99.90
51793;DHT22;37850;53.178;6.376;2023-05-27T03:48:39;6.80;99.90
51793;DHT22;37850;53.178;6.376;2023-05-27T03:51:05;6.80;99.90
51793;DHT22;37850;53.178;6.376;2023-05-27T03:53:31;6.90;99.90
51793;DHT22;37850;53.178;6.376;2023-05-27T03:55:56;6.90;99.90
51793;DHT22;37850;53.178;6.376;2023-05-27T03:58:22;6.90;99.90
51793;DHT22;37850;53.178;6.376;2023-05-27T04:00:48;7.10;99.90
51793;DHT22;37850;53.178;6.376;2023-05-27T04:03:14;7.00;99.90
51793;DHT22;37850;53.178;6.376;2023-05-27T04:05:41;7.00;99.90
51793;DHT22;37850;53.178;6.376;2023-05-27T04:08:06;7.00;99.90
51793;DHT22;37850;53.178;6.376;2023-05-27T04:10:32;7.00;99.90
51793;DHT22;37850;53.178;6.376;2023-05-27T04:12:58;7.00;99.90
51793;DHT22;37850;53.178;6.376;2023-05-27T04:15:23;7.10;99.90
51793;DHT22;37850;53.178;6.376;2023-05-27T04:17:51;7.10;99.90
51793;DHT22;37850;53.178;6.376;2023-05-27T04:20:17;7.10;99.90
51793;DHT22;37850;53.178;6.376;2023-05-27T04:22:44;7.10;99.90
51793;DHT22;37850;53.178;6.376;2023-05-27T04:25:11;7.20;99.90
51793;DHT22;37850;53.178;6.376;2023-05-27T04:27:37;7.20;99.90
51793;DHT22;37850;53.178;6.376;2023-05-27T04:30:04;7.30;99.90
51793;DHT22;37850;53.178;6.376;2023-05-27T04:32:30;7.30;99.90
51793;DHT22;37850;53.178;6.376;2023-05-27T04:35:07;7.90;99.90
51793;DHT22;37850;53.178;6.376;2023-05-27T04:37:34;7.40;99.90
51793;DHT22;37850;53.178;6.376;2023-05-27T04:40:03;7.40;99.90
51793;DHT22;37850;53.178;6.376;2023-05-27T04:42:29;7.70;99.90
51793;DHT22;37850;53.178;6.376;2023-05-27T04:44:54;7.40;99.90
51793;DHT22;37850;53.178;6.376;2023-05-27T04:47:20;7.50;99.90
51793;DHT22;37850;53.178;6.376;2023-05-27T04:49:47;7.50;99.90
51793;DHT22;37850;53.178;6.376;2023-05-27T04:52:13;7.50;99.90
51793;DHT22;37850;53.178;6.376;2023-05-27T04:54:38;7.60;99.90
51793;DHT22;37850;53.178;6.376;2023-05-27T04:57:04;7.70;99.90
51793;DHT22;37850;53.178;6.376;2023-05-27T04:59:30;7.70;99.90
51793;DHT22;37850;53.178;6.376;2023-05-27T05:02:12;7.70;99.90
51793;DHT22;37850;53.178;6.376;2023-05-27T05:04:47;7.80;99.90
51793;DHT22;37850;53.178;6.376;2023-05-27T05:07:12;7.80;99.90
51793;DHT22;37850;53.178;6.376;2023-05-27T05:09:38;8.30;99.90
51793;DHT22;37850;53.178;6.376;2023-05-27T05:12:04;8.00;99.90
51793;DHT22;37850;53.178;6.376;2023-05-27T05:14:31;8.00;99.90
51793;DHT22;37850;53.178;6.376;2023-05-27T05:16:57;8.00;99.90
51793;DHT22;37850;53.178;6.376;2023-05-27T05:19:23;8.00;99.90
51793;DHT22;37850;53.178;6.376;2023-05-27T05:21:48;8.60;99.90
51793;DHT22;37850;53.178;6.376;2023-05-27T05:24:14;8.50;99.90
51793;DHT22;37850;53.178;6.376;2023-05-27T05:26:43;8.20;99.90
51793;DHT22;37850;53.178;6.376;2023-05-27T05:29:11;8.20;99.90
51793;DHT22;37850;53.178;6.376;2023-05-27T05:31:37;8.20;99.90
51793;DHT22;37850;53.178;6.376;2023-05-27T05:34:03;8.30;99.90
51793;DHT22;37850;53.178;6.376;2023-05-27T05:36:29;8.60;99.90
51793;DHT22;37850;53.178;6.376;2023-05-27T05:38:54;8.40;99.90
51793;DHT22;37850;53.178;6.376;2023-05-27T05:41:20;8.70;99.90
51793;DHT22;37850;53.178;6.376;2023-05-27T05:43:46;8.40;99.90
51793;DHT22;37850;53.178;6.376;2023-05-27T05:46:14;8.50;99.90
51793;DHT22;37850;53.178;6.376;2023-05-27T05:48:40;8.60;99.90
51793;DHT22;37850;53.178;6.376;2023-05-27T05:51:06;8.70;99.90
51793;DHT22;37850;53.178;6.376;2023-05-27T05:53:32;8.70;99.90
51793;DHT22;37850;53.178;6.376;2023-05-27T05:55:58;8.80;99.90
51793;DHT22;37850;53.178;6.376;2023-05-27T05:58:23;8.90;99.90
51793;DHT22;37850;53.178;6.376;2023-05-27T06:00:49;9.00;99.90
51793;DHT22;37850;53.178;6.376;2023-05-27T06:03:14;9.10;99.90
51793;DHT22;37850;53.178;6.376;2023-05-27T06:05:40;9.20;99.90
51793;DHT22;37850;53.178;6.376;2023-05-27T06:08:06;9.30;99.90
51793;DHT22;37850;53.178;6.376;2023-05-27T06:10:32;9.40;99.90
51793;DHT22;37850;53.178;6.376;2023-05-27T06:12:57;9.50;99.90
51793;DHT22;37850;53.178;6.376;2023-05-27T06:15:23;9.60;99.90
51793;DHT22;37850;53.178;6.376;2023-05-27T06:17:49;9.60;99.90
51793;DHT22;37850;53.178;6.376;2023-05-27T06:20:15;9.70;99.90
51793;DHT22;37850;53.178;6.376;2023-05-27T06:22:44;9.80;99.90
51793;DHT22;37850;53.178;6.376;2023-05-27T06:25:12;9.90;99.90
51793;DHT22;37850;53.178;6.376;2023-05-27T06:27:38;10.00;99.90
51793;DHT22;37850;53.178;6.376;2023-05-27T06:30:04;10.10;99.90
51793;DHT22;37850;53.178;6.376;2023-05-27T06:32:30;10.20;99.90
51793;DHT22;37850;53.178;6.376;2023-05-27T06:34:56;9.90;99.90
51793;DHT22;37850;53.178;6.376;2023-05-27T06:37:21;10.40;99.90
51793;DHT22;37850;53.178;6.376;2023-05-27T06:39:48;10.50;99.90
51793;DHT22;37850;53.178;6.376;2023-05-27T06:42:14;10.50;99.90
51793;DHT22;37850;53.178;6.376;2023-05-27T06:44:40;10.50;99.90
51793;DHT22;37850;53.178;6.376;2023-05-27T06:47:09;10.60;99.90
51793;DHT22;37850;53.178;6.376;2023-05-27T06:49:34;10.60;99.90
51793;DHT22;37850;53.178;6.376;2023-05-27T06:52:00;10.60;99.90
51793;DHT22;37850;53.178;6.376;2023-05-27T06:54:26;10.70;99.90
51793;DHT22;37850;53.178;6.376;2023-05-27T06:56:52;10.70;99.90
51793;DHT22;37850;53.178;6.376;2023-05-27T06:59:17;10.80;99.90
51793;DHT22;37850;53.178;6.376;2023-05-27T07:01:43;10.80;99.90
51793;DHT22;37850;53.178;6.376;2023-05-27T07:04:09;11.00;99.90
51793;DHT22;37850;53.178;6.376;2023-05-27T07:06:35;11.00;99.90
51793;DHT22;37850;53.178;6.376;2023-05-27T07:09:02;11.40;99.90
51793;DHT22;37850;53.178;6.376;2023-05-27T07:11:28;11.10;99.90
51793;DHT22;37850;53.178;6.376;2023-05-27T07:13:54;11.20;99.90
51793;DHT22;37850;53.178;6.376;2023-05-27T07:16:20;11.30;99.90
51793;DHT22;37850;53.178;6.376;2023-05-27T07:18:45;11.40;99.90
51793;DHT22;37850;53.178;6.376;2023-05-27T07:21:12;11.50;99.90
51793;DHT22;37850;53.178;6.376;2023-05-27T07:23:37;11.60;99.90
51793;DHT22;37850;53.178;6.376;2023-05-27T07:26:03;11.70;99.90
51793;DHT22;37850;53.178;6.376;2023-05-27T07:28:29;11.80;99.90
51793;DHT22;37850;53.178;6.376;2023-05-27T07:30:55;11.90;99.90
51793;DHT22;37850;53.178;6.376;2023-05-27T07:33:21;12.00;99.90
51793;DHT22;37850;53.178;6.376;2023-05-27T07:35:46;12.10;99.90
51793;DHT22;37850;53.178;6.376;2023-05-27T07:38:12;12.30;99.90
51793;DHT22;37850;53.178;6.376;2023-05-27T07:40:38;12.40;99.90
51793;DHT22;37850;53.178;6.376;2023-05-27T07:43:04;12.50;99.90
51793;DHT22;37850;53.178;6.376;2023-05-27T07:45:29;12.70;99.90
51793;DHT22;37850;53.178;6.376;2023-05-27T07:47:56;12.80;99.90
51793;DHT22;37850;53.178;6.376;2023-05-27T07:50:22;12.90;99.90
51793;DHT22;37850;53.178;6.376;2023-05-27T07:52:47;13.10;99.90
51793;DHT22;37850;53.178;6.376;2023-05-27T07:55:13;13.20;99.90
51793;DHT22;37850;53.178;6.376;2023-05-27T07:57:39;13.20;99.90
51793;DHT22;37850;53.178;6.376;2023-05-27T08:00:06;13.20;99.90
51793;DHT22;37850;53.178;6.376;2023-05-27T08:02:32;13.20;99.90
51793;DHT22;37850;53.178;6.376;2023-05-27T08:04:58;13.40;99.90
51793;DHT22;37850;53.178;6.376;2023-05-27T08:07:23;13.30;99.90
51793;DHT22;37850;53.178;6.376;2023-05-27T08:09:49;13.30;99.90
51793;DHT22;37850;53.178;6.376;2023-05-27T08:12:15;13.30;99.90
51793;DHT22;37850;53.178;6.376;2023-05-27T08:14:41;13.30;99.90
51793;DHT22;37850;53.178;6.376;2023-05-27T08:17:07;13.30;99.90
51793;DHT22;37850;53.178;6.376;2023-05-27T08:19:33;13.40;99.90
51793;DHT22;37850;53.178;6.376;2023-05-27T08:21:59;13.40;99.90
51793;DHT22;37850;53.178;6.376;2023-05-27T08:24:24;13.40;99.90
51793;DHT22;37850;53.178;6.376;2023-05-27T08:26:50;13.50;99.90
51793;DHT22;37850;53.178;6.376;2023-05-27T08:29:16;13.60;99.90
51793;DHT22;37850;53.178;6.376;2023-05-27T08:31:42;13.80;99.90
51793;DHT22;37850;53.178;6.376;2023-05-27T08:34:07;13.90;99.90
51793;DHT22;37850;53.178;6.376;2023-05-27T08:36:33;14.00;99.90
51793;DHT22;37850;53.178;6.376;2023-05-27T08:38:59;14.20;99.90
51793;DHT22;37850;53.178;6.376;2023-05-27T08:41:26;14.30;99.90
51793;DHT22;37850;53.178;6.376;2023-05-27T08:43:53;14.40;99.90
51793;DHT22;37850;53.178;6.376;2023-05-27T08:46:20;14.50;99.90
51793;DHT22;37850;53.178;6.376;2023-05-27T08:48:46;14.60;99.90
51793;DHT22;37850;53.178;6.376;2023-05-27T08:51:13;14.60;99.90
51793;DHT22;37850;53.178;6.376;2023-05-27T08:53:44;14.70;99.90
51793;DHT22;37850;53.178;6.376;2023-05-27T08:56:14;14.70;99.90
51793;DHT22;37850;53.178;6.376;2023-05-27T08:58:42;14.80;99.90
51793;DHT22;37850;53.178;6.376;2023-05-27T09:01:09;14.80;99.90
51793;DHT22;37850;53.178;6.376;2023-05-27T09:03:35;14.80;99.90
51793;DHT22;37850;53.178;6.376;2023-05-27T09:06:02;14.80;99.90
51793;DHT22;37850;53.178;6.376;2023-05-27T09:08:30;14.90;99.90
51793;DHT22;37850;53.178;6.376;2023-05-27T09:10:56;14.90;99.90
51793;DHT22;37850;53.178;6.376;2023-05-27T09:13:29;15.00;99.90
51793;DHT22;37850;53.178;6.376;2023-05-27T09:16:02;15.10;99.90
51793;DHT22;37850;53.178;6.376;2023-05-27T09:18:31;15.30;99.90
51793;DHT22;37850;53.178;6.376;2023-05-27T09:20:57;15.20;99.90
51793;DHT22;37850;53.178;6.376;2023-05-27T09:23:23;15.30;99.90
51793;DHT22;37850;53.178;6.376;2023-05-27T09:25:49;15.30;99.90
51793;DHT22;37850;53.178;6.376;2023-05-27T09:28:26;15.40;99.90
51793;DHT22;37850;53.178;6.376;2023-05-27T09:31:02;15.50;99.90
51793;DHT22;37850;53.178;6.376;2023-05-27T09:33:38;15.60;99.90
51793;DHT22;37850;53.178;6.376;2023-05-27T09:36:05;15.60;99.90
51793;DHT22;37850;53.178;6.376;2023-05-27T09:38:32;15.60;99.90
51793;DHT22;37850;53.178;6.376;2023-05-27T09:40:58;15.70;99.90
51793;DHT22;37850;53.178;6.376;2023-05-27T09:43:26;15.80;99.90
51793;DHT22;37850;53.178;6.376;2023-05-27T09:46:02;15.90;99.90
51793;DHT22;37850;53.178;6.376;2023-05-27T09:48:31;15.90;99.90
51793;DHT22;37850;53.178;6.376;2023-05-27T09:51:00;15.90;99.90
51793;DHT22;37850;53.178;6.376;2023-05-27T09:53:27;16.00;99.90
51793;DHT22;37850;53.178;6.376;2023-05-27T09:55:56;16.10;99.90
51793;DHT22;37850;53.178;6.376;2023-05-27T09:58:23;16.10;99.90
51793;DHT22;37850;53.178;6.376;2023-05-27T10:00:50;16.10;99.90
51793;DHT22;37850;53.178;6.376;2023-05-27T10:03:17;16.20;99.90
51793;DHT22;37850;53.178;6.376;2023-05-27T10:05:46;16.20;99.90
51793;DHT22;37850;53.178;6.376;2023-05-27T10:08:14;16.20;99.90
51793;DHT22;37850;53.178;6.376;2023-05-27T10:10:39;16.30;99.90
51793;DHT22;37850;53.178;6.376;2023-05-27T10:13:06;16.40;99.90
51793;DHT22;37850;53.178;6.376;2023-05-27T10:15:33;16.40;99.90
51793;DHT22;37850;53.178;6.376;2023-05-27T10:20:32;16.60;99.90
51793;DHT22;37850;53.178;6.376;2023-05-27T10:23:19;16.70;99.90
51793;DHT22;37850;53.178;6.376;2023-05-27T10:25:54;16.70;99.90
51793;DHT22;37850;53.178;6.376;2023-05-27T10:30:51;16.80;99.90
51793;DHT22;37850;53.178;6.376;2023-05-27T10:33:29;16.90;99.90
51793;DHT22;37850;53.178;6.376;2023-05-27T10:35:56;16.90;99.90
51793;DHT22;37850;53.178;6.376;2023-05-27T10:38:23;17.00;99.90
51793;DHT22;37850;53.178;6.376;2023-05-27T10:40:59;17.00;99.90
51793;DHT22;37850;53.178;6.376;2023-05-27T10:43:28;17.10;99.90
51793;DHT22;37850;53.178;6.376;2023-05-27T10:46:02;17.10;99.90
51793;DHT22;37850;53.178;6.376;2023-05-27T10:48:28;17.20;99.90
51793;DHT22;37850;53.178;6.376;2023-05-27T10:50:57;17.20;99.90
51793;DHT22;37850;53.178;6.376;2023-05-27T10:53:26;17.40;99.90
51793;DHT22;37850;53.178;6.376;2023-05-27T10:55:57;17.30;99.90
51793;DHT22;37850;53.178;6.376;2023-05-27T10:58:23;17.40;99.90
51793;DHT22;37850;53.178;6.376;2023-05-27T11:00:51;17.40;99.90
51793;DHT22;37850;53.178;6.376;2023-05-27T11:03:22;17.40;99.90
51793;DHT22;37850;53.178;6.376;2023-05-27T11:06:06;17.50;99.90
51793;DHT22;37850;53.178;6.376;2023-05-27T11:08:35;17.50;99.90
51793;DHT22;37850;53.178;6.376;2023-05-27T11:11:10;17.60;99.90
51793;DHT22;37850;53.178;6.376;2023-05-27T11:13:39;17.60;99.90
51793;DHT22;37850;53.178;6.376;2023-05-27T11:16:06;17.60;99.90
51793;DHT22;37850;53.178;6.376;2023-05-27T11:18:39;17.60;99.90
51793;DHT22;37850;53.178;6.376;2023-05-27T11:21:07;17.70;99.90
51793;DHT22;37850;53.178;6.376;2023-05-27T11:23:37;17.70;99.90
51793;DHT22;37850;53.178;6.376;2023-05-27T11:26:20;17.80;99.90
51793;DHT22;37850;53.178;6.376;2023-05-27T11:28:53;17.80;99.90
51793;DHT22;37850;53.178;6.376;2023-05-27T11:31:22;17.90;99.90
51793;DHT22;37850;53.178;6.376;2023-05-27T11:33:52;17.90;99.90
51793;DHT22;37850;53.178;6.376;2023-05-27T11:36:20;17.90;99.90
51793;DHT22;37850;53.178;6.376;2023-05-27T11:39:02;18.00;99.90
51793;DHT22;37850;53.178;6.376;2023-05-27T11:41:29;18.00;99.90
51793;DHT22;37850;53.178;6.376;2023-05-27T11:44:05;18.00;99.90
51793;DHT22;37850;53.178;6.376;2023-05-27T11:46:40;18.10;99.90
51793;DHT22;37850;53.178;6.376;2023-05-27T11:49:08;18.10;99.90
51793;DHT22;37850;53.178;6.376;2023-05-27T11:51:36;18.20;99.90
51793;DHT22;37850;53.178;6.376;2023-05-27T11:54:02;18.30;99.90
51793;DHT22;37850;53.178;6.376;2023-05-27T11:56:28;18.30;99.90
51793;DHT22;37850;53.178;6.376;2023-05-27T11:58:55;18.30;99.90
51793;DHT22;37850;53.178;6.376;2023-05-27T12:01:21;18.40;99.90
51793;DHT22;37850;53.178;6.376;2023-05-27T12:03:47;18.40;99.90
51793;DHT22;37850;53.178;6.376;2023-05-27T12:06:13;18.30;99.90
51793;DHT22;37850;53.178;6.376;2023-05-27T12:08:40;18.40;99.90
51793;DHT22;37850;53.178;6.376;2023-05-27T12:11:06;18.40;99.90
51793;DHT22;37850;53.178;6.376;2023-05-27T12:13:32;18.40;99.90
51793;DHT22;37850;53.178;6.376;2023-05-27T12:15:58;18.40;99.90
51793;DHT22;37850;53.178;6.376;2023-05-27T12:18:24;18.40;99.90
51793;DHT22;37850;53.178;6.376;2023-05-27T12:20:50;18.40;99.90
51793;DHT22;37850;53.178;6.376;2023-05-27T12:23:17;18.40;99.90
51793;DHT22;37850;53.178;6.376;2023-05-27T12:25:43;18.40;99.90
51793;DHT22;37850;53.178;6.376;2023-05-27T12:28:09;18.40;99.90
51793;DHT22;37850;53.178;6.376;2023-05-27T12:30:36;18.40;99.90
51793;DHT22;37850;53.178;6.376;2023-05-27T12:33:05;18.40;99.90
51793;DHT22;37850;53.178;6.376;2023-05-27T12:35:32;18.50;99.90
51793;DHT22;37850;53.178;6.376;2023-05-27T12:38:01;18.50;99.90
51793;DHT22;37850;53.178;6.376;2023-05-27T12:40:27;18.50;99.90
51793;DHT22;37850;53.178;6.376;2023-05-27T12:42:53;18.60;99.90
51793;DHT22;37850;53.178;6.376;2023-05-27T12:45:19;18.70;99.90
51793;DHT22;37850;53.178;6.376;2023-05-27T12:47:49;18.70;99.90
51793;DHT22;37850;53.178;6.376;2023-05-27T12:50:16;18.80;99.90
51793;DHT22;37850;53.178;6.376;2023-05-27T12:52:43;18.80;99.90
51793;DHT22;37850;53.178;6.376;2023-05-27T12:55:15;18.90;99.90
51793;DHT22;37850;53.178;6.376;2023-05-27T12:57:45;19.00;99.90
51793;DHT22;37850;53.178;6.376;2023-05-27T13:00:12;19.00;99.90
51793;DHT22;37850;53.178;6.376;2023-05-27T13:02:38;19.10;99.90
51793;DHT22;37850;53.178;6.376;2023-05-27T13:05:05;19.10;99.90
51793;DHT22;37850;53.178;6.376;2023-05-27T13:07:34;19.10;99.90
51793;DHT22;37850;53.178;6.376;2023-05-27T13:10:05;19.10;99.90
51793;DHT22;37850;53.178;6.376;2023-05-27T13:12:33;19.10;99.90
51793;DHT22;37850;53.178;6.376;2023-05-27T13:15:02;19.20;99.90
51793;DHT22;37850;53.178;6.376;2023-05-27T13:17:33;19.20;99.90
51793;DHT22;37850;53.178;6.376;2023-05-27T13:20:02;19.20;99.90
51793;DHT22;37850;53.178;6.376;2023-05-27T13:22:28;19.40;99.90
51793;DHT22;37850;53.178;6.376;2023-05-27T13:24:54;19.30;99.90
51793;DHT22;37850;53.178;6.376;2023-05-27T13:27:21;19.40;99.90
51793;DHT22;37850;53.178;6.376;2023-05-27T13:29:47;19.40;99.90
51793;DHT22;37850;53.178;6.376;2023-05-27T13:32:13;19.40;99.90
51793;DHT22;37850;53.178;6.376;2023-05-27T13:34:39;19.40;99.90
51793;DHT22;37850;53.178;6.376;2023-05-27T13:37:05;19.40;99.90
51793;DHT22;37850;53.178;6.376;2023-05-27T13:39:31;19.40;99.90
51793;DHT22;37850;53.178;6.376;2023-05-27T13:41:57;19.40;99.90
51793;DHT22;37850;53.178;6.376;2023-05-27T13:44:23;19.40;99.90
51793;DHT22;37850;53.178;6.376;2023-05-27T13:46:50;19.40;99.90
51793;DHT22;37850;53.178;6.376;2023-05-27T13:49:15;19.40;99.90
51793;DHT22;37850;53.178;6.376;2023-05-27T13:51:43;19.40;99.90
51793;DHT22;37850;53.178;6.376;2023-05-27T13:54:09;19.50;99.90
51793;DHT22;37850;53.178;6.376;2023-05-27T13:56:35;19.50;99.90
51793;DHT22;37850;53.178;6.376;2023-05-27T13:59:01;19.60;99.90
51793;DHT22;37850;53.178;6.376;2023-05-27T14:01:29;19.60;99.90
51793;DHT22;37850;53.178;6.376;2023-05-27T14:03:55;19.60;99.90
51793;DHT22;37850;53.178;6.376;2023-05-27T14:06:22;19.60;99.90
51793;DHT22;37850;53.178;6.376;2023-05-27T14:08:48;19.60;99.90
51793;DHT22;37850;53.178;6.376;2023-05-27T14:11:14;19.50;99.90
51793;DHT22;37850;53.178;6.376;2023-05-27T14:13:40;19.50;99.90
51793;DHT22;37850;53.178;6.376;2023-05-27T14:16:07;19.50;99.90
51793;DHT22;37850;53.178;6.376;2023-05-27T14:18:32;19.50;99.90
51793;DHT22;37850;53.178;6.376;2023-05-27T14:21:02;19.60;99.90
51793;DHT22;37850;53.178;6.376;2023-05-27T14:23:28;19.60;99.90
51793;DHT22;37850;53.178;6.376;2023-05-27T14:25:54;19.60;99.90
51793;DHT22;37850;53.178;6.376;2023-05-27T14:28:20;19.60;99.90
51793;DHT22;37850;53.178;6.376;2023-05-27T14:30:46;19.60;99.90
51793;DHT22;37850;53.178;6.376;2023-05-27T14:33:12;19.60;99.90
51793;DHT22;37850;53.178;6.376;2023-05-27T14:35:38;19.60;99.90
51793;DHT22;37850;53.178;6.376;2023-05-27T14:38:06;19.60;99.90
51793;DHT22;37850;53.178;6.376;2023-05-27T14:40:32;19.60;99.90
51793;DHT22;37850;53.178;6.376;2023-05-27T14:43:02;19.60;99.90
51793;DHT22;37850;53.178;6.376;2023-05-27T14:45:27;19.60;99.90
51793;DHT22;37850;53.178;6.376;2023-05-27T14:47:53;19.70;99.90
51793;DHT22;37850;53.178;6.376;2023-05-27T14:50:23;19.70;99.90
51793;DHT22;37850;53.178;6.376;2023-05-27T14:52:49;19.70;99.90
51793;DHT22;37850;53.178;6.376;2023-05-27T14:55:15;19.70;99.90
51793;DHT22;37850;53.178;6.376;2023-05-27T14:57:42;19.80;99.90
51793;DHT22;37850;53.178;6.376;2023-05-27T15:00:08;19.80;99.90
51793;DHT22;37850;53.178;6.376;2023-05-27T15:02:35;19.70;99.90
51793;DHT22;37850;53.178;6.376;2023-05-27T15:05:02;19.60;99.90
51793;DHT22;37850;53.178;6.376;2023-05-27T15:07:29;19.50;99.90
51793;DHT22;37850;53.178;6.376;2023-05-27T15:09:55;19.40;99.90
51793;DHT22;37850;53.178;6.376;2023-05-27T15:12:21;19.40;99.90
51793;DHT22;37850;53.178;6.376;2023-05-27T15:14:47;19.30;99.90
51793;DHT22;37850;53.178;6.376;2023-05-27T15:17:12;19.20;99.90
51793;DHT22;37850;53.178;6.376;2023-05-27T15:19:39;19.20;99.90
51793;DHT22;37850;53.178;6.376;2023-05-27T15:22:06;19.20;99.90
51793;DHT22;37850;53.178;6.376;2023-05-27T15:24:32;19.10;99.90
51793;DHT22;37850;53.178;6.376;2023-05-27T15:27:02;19.20;99.90
51793;DHT22;37850;53.178;6.376;2023-05-27T15:29:28;19.10;99.90
51793;DHT22;37850;53.178;6.376;2023-05-27T15:31:54;19.10;99.90
51793;DHT22;37850;53.178;6.376;2023-05-27T15:34:20;19.00;99.90
51793;DHT22;37850;53.178;6.376;2023-05-27T15:36:46;19.00;99.90
51793;DHT22;37850;53.178;6.376;2023-05-27T15:39:12;18.90;99.90
51793;DHT22;37850;53.178;6.376;2023-05-27T15:41:38;18.90;99.90
51793;DHT22;37850;53.178;6.376;2023-05-27T15:44:04;18.80;99.90
51793;DHT22;37850;53.178;6.376;2023-05-27T15:46:30;18.80;99.90
51793;DHT22;37850;53.178;6.376;2023-05-27T15:48:55;18.80;99.90
51793;DHT22;37850;53.178;6.376;2023-05-27T15:51:21;18.80;99.90